Roberts Field Redmond US
ICAO: KRDM
IATA: RDM
Category: Medium
Scheduled Services: Yes

Elevation: 3080 ft
TransAlt. 18000 ft.

Airport Communications:
ASOS:119.025
SEATTLE CNTR:128.15
CTAF:124.5
GND:121.8
MC MINNVILLE RDO:122.5
REDMOND TWR:124.5
UNICOM:122.95

KRDM Zoom In..

If you have problems with the map follow the link
https://www.worldairports.se/pages/airport.php?
ICAO=KRDM

Runways:

(A) RW 04 length 7038 ft width 150 ft
---- / hdg 42

(B) RW 10 length 7006 ft width 100 ft
---- / hdg 104

(C) RW 22 length 7038 ft width 150 ft
ILS 109.10 / hdg 222

(D) RW 28 length 7006 ft width 100 ft
---- / hdg 284

Location; KRDM
Day. 08 / Time. 12.10 Zulu
* Altimeter: 29.87
* Temperature: 04° c. 39.2°f.
* Wind from: 000° Speed 00 kn.
Dewpoint: 02° c.
Visibility: 10 Statute Miles.
Clouds: Few 1900 ft.
Clouds: Broken 3300 ft.
Clouds: Overcast 7000 ft.

KRDM 081210Z AUTO 00000KT 10SM FEW019 BKN033 OVC070 04/02 A2987 RMK AO2 T00440022


Wind - Calm.

 
 
jpsmedia worldairports.se 2019   terms of use